Terminal Aerodrome Forecast
Issued by NWS

Home | Current Version | Previous Version | Text Only | Print | Product List | Glossary On
Versions: 1 2 3 4 5 6 7 8 9 10 11 12 13 14 15 16 17 18 19 20 21 22 23
000
FTUS42 KFFC 241123
TAFRYY
TAF
KRYY 241123Z 2412/2512 13007KT P6SM SCT020
     FM241600 10008KT P6SM SCT035
     FM242000 13010G16KT P6SM SCT050
     FM250100 13010KT P6SM BKN080
     FM250800 14010KT P6SM SCT009 BKN012=

USA.gov is the U.S. government's official web portal to all federal, state and local government web resources and services.